Meath Environmental Platform

Observations for Trim Market St

Time AQI Temp °C Hum % Pres Pa CO μg/m³ H₂S μg/m³ NO μg/m³ NO₂ μg/m³ O₃ μg/m³ SO₂ μg/m³ PM1 μg/m³ PM2.5 μg/m³ PM10 μg/m³
Monday 13 July 2026
00:01 1 20.5 66 57,112 0 0 0 5.7 24.74 0 0.71 2.74 4.28
00:00 1 20.5 66 57,134 0 0 0 4.82 22.85 0 0 1.76 3.63
Sunday 12 July 2026
23:59 1 20.5 66 57,147 0 0 0 5.52 25.55 0 1.43 2.75 4.93
23:58 1 20.5 66 57,156 0 0 0 5.32 23.36 0 0.71 2.25 3.63
23:57 1 20.6 66 57,163 0 0 0 4.29 29.11 0 0.71 2.75 4.93
23:55 1 20.6 66 57,165 0 0 0 5.6 24.39 0 1.43 3.24 5.58
23:54 1 20.6 66 57,186 0 0 0 6.81 30.41 0 0.71 3.25 6.88
23:53 1 20.6 66 57,195 0 0 0 4.42 25.59 0 0 2.27 3.62
23:52 1 20.6 66 57,201 0 0 0 6.52 22.58 0 0.71 2.27 4.27
23:51 1 20.6 66 57,211 0 0 0 5.63 22.93 0 0.71 2.27 3.62
23:48 1 20.6 66 57,226 0 0 0 5.43 25.66 0 0.71 2.27 3.62
23:47 1 20.6 66 57,236 0 0 0 5.43 24.8 0 0.71 2.76 4.92
23:46 1 20.7 66 57,240 0 0 0 4.72 24.17 0 0.71 2.77 4.92
23:45 1 20.6 66 57,244 0 0 0 6.75 23.19 0 0.71 2.28 5.57
23:42 1 20.7 66 57,279 0 0 0 4.63 29.78 0 1.43 2.77 4.92
23:40 1 20.7 65 57,286 0 0 0 5.94 22.6 0 0 2.78 4.26
23:39 1 20.7 65 57,292 0 0 0 4.54 23.82 0 0.71 2.78 4.26
23:38 1 20.7 65 57,293 0 0 0 6.24 26.27 0 1.43 2.78 4.26
23:35 1 20.8 65 57,312 0 0 0 5.63 24.65 0 0.71 2.78 4.91
23:25 1 20.9 65 57,382 0 0 0 6.14 23.74 0 0.71 2.31 3.59